sensor_id;sensor_type;location;lat;lon;timestamp;pressure;altitude;pressure_sealevel;temperature;humidity
42727;BME280;28372;56.832;60.658;2023-08-20T00:02:27;98179.22;;;15.56;55.75
42727;BME280;28372;56.832;60.658;2023-08-20T00:04:58;98181.59;;;15.47;55.43
42727;BME280;28372;56.832;60.658;2023-08-20T00:07:26;98176.53;;;15.45;55.59
42727;BME280;28372;56.832;60.658;2023-08-20T00:09:54;98162.09;;;15.48;56.32
42727;BME280;28372;56.832;60.658;2023-08-20T00:12:21;98168.34;;;15.45;55.56
42727;BME280;28372;56.832;60.658;2023-08-20T00:17:25;98168.72;;;15.54;55.57
42727;BME280;28372;56.832;60.658;2023-08-20T00:19:56;98167.97;;;15.47;56.01
42727;BME280;28372;56.832;60.658;2023-08-20T00:22:24;98159.44;;;15.34;55.29
42727;BME280;28372;56.832;60.658;2023-08-20T00:24:53;98168.78;;;15.36;56.32
42727;BME280;28372;56.832;60.658;2023-08-20T00:27:21;98169.97;;;15.32;56.44
42727;BME280;28372;56.832;60.658;2023-08-20T00:29:49;98176.19;;;15.29;56.77
42727;BME280;28372;56.832;60.658;2023-08-20T00:32:16;98171.50;;;15.36;57.52
42727;BME280;28372;56.832;60.658;2023-08-20T00:34:44;98171.50;;;15.36;56.93
42727;BME280;28372;56.832;60.658;2023-08-20T00:37:12;98167.19;;;15.42;57.28
42727;BME280;28372;56.832;60.658;2023-08-20T00:39:46;98166.06;;;15.36;57.87
42727;BME280;28372;56.832;60.658;2023-08-20T00:42:14;98171.09;;;15.34;58.08
42727;BME280;28372;56.832;60.658;2023-08-20T00:44:43;98175.41;;;15.32;58.03
42727;BME280;28372;56.832;60.658;2023-08-20T00:47:14;98174.66;;;15.28;56.17
42727;BME280;28372;56.832;60.658;2023-08-20T00:49:42;98171.53;;;15.29;56.72
42727;BME280;28372;56.832;60.658;2023-08-20T00:52:11;98177.75;;;15.30;56.49
42727;BME280;28372;56.832;60.658;2023-08-20T00:54:40;98189.81;;;15.29;55.17
42727;BME280;28372;56.832;60.658;2023-08-20T00:57:08;98190.59;;;15.25;55.86
42727;BME280;28372;56.832;60.658;2023-08-20T00:59:36;98194.50;;;15.21;54.68
42727;BME280;28372;56.832;60.658;2023-08-20T01:02:04;98192.56;;;15.25;53.36
42727;BME280;28372;56.832;60.658;2023-08-20T01:04:33;98192.16;;;15.16;53.19
42727;BME280;28372;56.832;60.658;2023-08-20T01:07:29;98204.91;;;15.62;54.71
42727;BME280;28372;56.832;60.658;2023-08-20T01:12:38;98210.44;;;15.26;53.96
42727;BME280;28372;56.832;60.658;2023-08-20T01:15:06;98206.97;;;15.18;54.50
42727;BME280;28372;56.832;60.658;2023-08-20T01:17:40;98212.28;;;15.72;53.58
42727;BME280;28372;56.832;60.658;2023-08-20T01:20:09;98215.50;;;15.35;54.58
42727;BME280;28372;56.832;60.658;2023-08-20T01:28:24;98218.94;;;15.50;53.80
42727;BME280;28372;56.832;60.658;2023-08-20T01:30:57;98218.59;;;15.40;53.87
42727;BME280;28372;56.832;60.658;2023-08-20T01:33:26;98224.44;;;15.39;54.36
42727;BME280;28372;56.832;60.658;2023-08-20T01:35:54;98231.84;;;15.35;52.75
42727;BME280;28372;56.832;60.658;2023-08-20T01:38:22;98219.38;;;15.41;53.88
42727;BME280;28372;56.832;60.658;2023-08-20T01:40:50;98225.22;;;15.39;52.37
42727;BME280;28372;56.832;60.658;2023-08-20T01:43:18;98225.63;;;15.38;52.46
42727;BME280;28372;56.832;60.658;2023-08-20T01:45:46;98217.41;;;15.41;51.51
42727;BME280;28372;56.832;60.658;2023-08-20T01:48:15;98222.47;;;15.50;52.28
42727;BME280;28372;56.832;60.658;2023-08-20T01:50:43;98222.44;;;15.54;52.55
42727;BME280;28372;56.832;60.658;2023-08-20T01:53:12;98229.06;;;15.56;51.92
42727;BME280;28372;56.832;60.658;2023-08-20T01:55:40;98215.81;;;15.66;51.85
42727;BME280;28372;56.832;60.658;2023-08-20T01:58:07;98222.38;;;15.75;51.70
42727;BME280;28372;56.832;60.658;2023-08-20T02:00:35;98219.25;;;15.84;50.40
42727;BME280;28372;56.832;60.658;2023-08-20T02:03:03;98220.78;;;15.92;51.66
42727;BME280;28372;56.832;60.658;2023-08-20T02:05:31;98220.38;;;15.94;50.74
42727;BME280;28372;56.832;60.658;2023-08-20T02:07:59;98220.75;;;16.00;50.85
42727;BME280;28372;56.832;60.658;2023-08-20T02:10:26;98217.59;;;16.12;50.75
42727;BME280;28372;56.832;60.658;2023-08-20T02:12:54;98215.97;;;16.22;50.85
42727;BME280;28372;56.832;60.658;2023-08-20T02:15:22;98213.56;;;16.31;49.69
42727;BME280;28372;56.832;60.658;2023-08-20T02:17:50;98214.31;;;16.39;49.69
42727;BME280;28372;56.832;60.658;2023-08-20T02:20:18;98211.94;;;16.44;49.38
42727;BME280;28372;56.832;60.658;2023-08-20T02:22:47;98217.72;;;16.54;49.07
42727;BME280;28372;56.832;60.658;2023-08-20T02:25:15;98228.59;;;16.57;48.04
42727;BME280;28372;56.832;60.658;2023-08-20T02:27:42;98220.06;;;16.52;49.40
42727;BME280;28372;56.832;60.658;2023-08-20T02:30:11;98216.03;;;16.71;48.70
42727;BME280;28372;56.832;60.658;2023-08-20T02:32:40;98223.72;;;16.83;49.24
42727;BME280;28372;56.832;60.658;2023-08-20T02:35:08;98209.25;;;16.93;48.52
42727;BME280;28372;56.832;60.658;2023-08-20T02:37:36;98218.38;;;17.18;48.24
42727;BME280;28372;56.832;60.658;2023-08-20T02:40:04;98225.88;;;17.83;47.41
42727;BME280;28372;56.832;60.658;2023-08-20T02:42:32;98220.13;;;18.62;45.98
42727;BME280;28372;56.832;60.658;2023-08-20T02:45:00;98228.06;;;19.51;43.91
42727;BME280;28372;56.832;60.658;2023-08-20T02:47:30;98222.25;;;20.26;41.17
42727;BME280;28372;56.832;60.658;2023-08-20T02:49:59;98222.13;;;20.99;40.34
42727;BME280;28372;56.832;60.658;2023-08-20T02:52:27;98219.84;;;21.73;38.88
42727;BME280;28372;56.832;60.658;2023-08-20T02:54:54;98222.38;;;22.48;36.18
42727;BME280;28372;56.832;60.658;2023-08-20T02:57:22;98230.88;;;23.27;36.46
42727;BME280;28372;56.832;60.658;2023-08-20T02:59:50;98221.97;;;23.90;35.45
42727;BME280;28372;56.832;60.658;2023-08-20T03:02:18;98218.28;;;24.46;34.96
42727;BME280;28372;56.832;60.658;2023-08-20T03:04:45;98210.91;;;25.03;33.14
42727;BME280;28372;56.832;60.658;2023-08-20T03:07:13;98215.22;;;25.59;31.88
42727;BME280;28372;56.832;60.658;2023-08-20T03:09:41;98219.94;;;26.05;31.67
42727;BME280;28372;56.832;60.658;2023-08-20T03:12:08;98208.97;;;26.54;30.10
42727;BME280;28372;56.832;60.658;2023-08-20T03:14:36;98215.16;;;27.06;29.45
42727;BME280;28372;56.832;60.658;2023-08-20T03:17:04;98216.25;;;27.63;28.94
42727;BME280;28372;56.832;60.658;2023-08-20T03:19:33;98209.75;;;28.11;27.59
42727;BME280;28372;56.832;60.658;2023-08-20T03:22:03;98207.75;;;28.62;27.61
42727;BME280;28372;56.832;60.658;2023-08-20T03:24:30;98192.03;;;29.20;26.24
42727;BME280;28372;56.832;60.658;2023-08-20T03:26:58;98204.34;;;29.81;25.81
42727;BME280;28372;56.832;60.658;2023-08-20T03:29:26;98209.25;;;30.24;24.39
42727;BME280;28372;56.832;60.658;2023-08-20T03:31:55;98206.03;;;30.74;24.15
42727;BME280;28372;56.832;60.658;2023-08-20T03:34:23;98201.38;;;31.03;23.88
42727;BME280;28372;56.832;60.658;2023-08-20T03:36:50;98198.16;;;31.33;22.77
42727;BME280;28372;56.832;60.658;2023-08-20T03:39:18;98198.78;;;31.77;22.80
42727;BME280;28372;56.832;60.658;2023-08-20T03:41:47;98204.13;;;31.98;22.55
42727;BME280;28372;56.832;60.658;2023-08-20T03:44:14;98203.31;;;32.59;21.29
42727;BME280;28372;56.832;60.658;2023-08-20T03:46:43;98203.50;;;32.95;21.22
42727;BME280;28372;56.832;60.658;2023-08-20T03:49:12;98186.75;;;33.32;20.69
42727;BME280;28372;56.832;60.658;2023-08-20T03:51:40;98198.00;;;33.68;20.30
42727;BME280;28372;56.832;60.658;2023-08-20T03:54:09;98193.25;;;33.93;20.56
42727;BME280;28372;56.832;60.658;2023-08-20T03:56:37;98194.78;;;33.94;19.46
42727;BME280;28372;56.832;60.658;2023-08-20T03:59:05;98193.78;;;34.22;19.37
42727;BME280;28372;56.832;60.658;2023-08-20T04:01:33;98188.59;;;34.56;19.36
42727;BME280;28372;56.832;60.658;2023-08-20T04:04:03;98196.00;;;34.78;18.36
42727;BME280;28372;56.832;60.658;2023-08-20T04:06:31;98200.16;;;34.96;18.25
42727;BME280;28372;56.832;60.658;2023-08-20T04:08:59;98206.59;;;35.35;18.18
42727;BME280;28372;56.832;60.658;2023-08-20T04:11:26;98194.16;;;35.63;17.88
42727;BME280;28372;56.832;60.658;2023-08-20T04:13:54;98195.25;;;35.92;17.44
42727;BME280;28372;56.832;60.658;2023-08-20T04:16:22;98185.13;;;36.03;16.95
42727;BME280;28372;56.832;60.658;2023-08-20T04:18:50;98202.38;;;36.26;17.08
42727;BME280;28372;56.832;60.658;2023-08-20T04:21:19;98196.47;;;36.43;17.01
42727;BME280;28372;56.832;60.658;2023-08-20T04:23:46;98184.56;;;36.63;17.00
42727;BME280;28372;56.832;60.658;2023-08-20T04:26:14;98189.94;;;37.01;16.26
42727;BME280;28372;56.832;60.658;2023-08-20T04:28:42;98185.38;;;37.12;15.88
42727;BME280;28372;56.832;60.658;2023-08-20T04:31:10;98180.94;;;37.16;16.04
42727;BME280;28372;56.832;60.658;2023-08-20T04:33:59;98178.31;;;37.32;15.57
42727;BME280;28372;56.832;60.658;2023-08-20T04:36:37;98176.69;;;37.58;15.04
42727;BME280;28372;56.832;60.658;2023-08-20T04:39:05;98175.41;;;37.45;15.93
42727;BME280;28372;56.832;60.658;2023-08-20T04:41:36;98172.72;;;37.40;15.68
42727;BME280;28372;56.832;60.658;2023-08-20T04:44:03;98173.31;;;37.25;15.52
42727;BME280;28372;56.832;60.658;2023-08-20T04:46:31;98177.38;;;37.50;14.89
42727;BME280;28372;56.832;60.658;2023-08-20T04:48:59;98174.44;;;37.77;14.46
42727;BME280;28372;56.832;60.658;2023-08-20T04:51:27;98172.59;;;37.80;14.68
42727;BME280;28372;56.832;60.658;2023-08-20T04:53:55;98169.91;;;37.95;14.84
42727;BME280;28372;56.832;60.658;2023-08-20T04:56:23;98167.13;;;37.82;14.43
42727;BME280;28372;56.832;60.658;2023-08-20T04:58:53;98156.03;;;38.05;14.58
42727;BME280;28372;56.832;60.658;2023-08-20T05:01:41;98161.78;;;38.20;14.52
42727;BME280;28372;56.832;60.658;2023-08-20T05:04:09;98167.34;;;38.34;14.34
42727;BME280;28372;56.832;60.658;2023-08-20T05:06:37;98157.88;;;38.52;14.26
42727;BME280;28372;56.832;60.658;2023-08-20T05:09:06;98166.88;;;38.80;14.02
42727;BME280;28372;56.832;60.658;2023-08-20T05:11:34;98167.19;;;39.05;13.78
42727;BME280;28372;56.832;60.658;2023-08-20T05:14:02;98160.13;;;39.50;13.91
42727;BME280;28372;56.832;60.658;2023-08-20T05:16:30;98152.22;;;39.49;14.04
42727;BME280;28372;56.832;60.658;2023-08-20T05:18:58;98149.25;;;39.85;13.51
42727;BME280;28372;56.832;60.658;2023-08-20T05:21:26;98145.50;;;39.83;13.69
42727;BME280;28372;56.832;60.658;2023-08-20T05:23:54;98143.97;;;40.20;13.67
42727;BME280;28372;56.832;60.658;2023-08-20T05:26:22;98150.34;;;40.44;13.68
42727;BME280;28372;56.832;60.658;2023-08-20T05:28:50;98145.75;;;40.72;13.29
42727;BME280;28372;56.832;60.658;2023-08-20T05:31:18;98149.88;;;40.79;13.22
42727;BME280;28372;56.832;60.658;2023-08-20T05:33:45;98145.50;;;40.93;13.02
42727;BME280;28372;56.832;60.658;2023-08-20T05:36:14;98159.94;;;41.13;12.85
42727;BME280;28372;56.832;60.658;2023-08-20T05:38:44;98147.56;;;41.25;12.91
42727;BME280;28372;56.832;60.658;2023-08-20T05:41:11;98152.78;;;41.44;12.65
42727;BME280;28372;56.832;60.658;2023-08-20T05:43:39;98148.34;;;41.59;12.67
42727;BME280;28372;56.832;60.658;2023-08-20T05:46:07;98157.66;;;41.77;12.33
42727;BME280;28372;56.832;60.658;2023-08-20T05:48:35;98140.88;;;41.97;11.60
42727;BME280;28372;56.832;60.658;2023-08-20T05:51:03;98141.78;;;42.17;12.35
42727;BME280;28372;56.832;60.658;2023-08-20T05:53:32;98147.00;;;42.28;12.42
42727;BME280;28372;56.832;60.658;2023-08-20T05:55:59;98140.53;;;42.35;12.04
42727;BME280;28372;56.832;60.658;2023-08-20T05:58:27;98130.31;;;42.67;11.85
42727;BME280;28372;56.832;60.658;2023-08-20T06:00:55;98125.59;;;42.79;11.57
42727;BME280;28372;56.832;60.658;2023-08-20T06:03:23;98133.22;;;42.77;12.01
42727;BME280;28372;56.832;60.658;2023-08-20T06:05:51;98121.69;;;42.75;11.47
42727;BME280;28372;56.832;60.658;2023-08-20T06:08:18;98117.75;;;42.70;12.04
42727;BME280;28372;56.832;60.658;2023-08-20T06:10:46;98107.31;;;42.55;11.55
42727;BME280;28372;56.832;60.658;2023-08-20T06:13:14;98113.72;;;42.56;11.37
42727;BME280;28372;56.832;60.658;2023-08-20T06:15:41;98106.72;;;42.57;11.80
42727;BME280;28372;56.832;60.658;2023-08-20T06:18:09;98100.13;;;42.72;11.86
42727;BME280;28372;56.832;60.658;2023-08-20T06:20:37;98104.03;;;42.76;11.38
42727;BME280;28372;56.832;60.658;2023-08-20T06:23:05;98101.03;;;43.02;11.49
42727;BME280;28372;56.832;60.658;2023-08-20T06:25:33;98104.75;;;43.22;11.57
42727;BME280;28372;56.832;60.658;2023-08-20T06:28:00;98093.09;;;43.27;11.12
42727;BME280;28372;56.832;60.658;2023-08-20T06:30:28;98084.13;;;43.31;11.32
42727;BME280;28372;56.832;60.658;2023-08-20T06:32:55;98088.09;;;43.45;10.85
42727;BME280;28372;56.832;60.658;2023-08-20T06:35:23;98087.06;;;43.51;10.56
42727;BME280;28372;56.832;60.658;2023-08-20T06:37:51;98079.22;;;43.04;10.21
42727;BME280;28372;56.832;60.658;2023-08-20T06:40:19;98068.19;;;42.91;10.59
42727;BME280;28372;56.832;60.658;2023-08-20T06:42:47;98080.19;;;42.99;10.53
42727;BME280;28372;56.832;60.658;2023-08-20T06:45:14;98075.78;;;43.06;10.53
42727;BME280;28372;56.832;60.658;2023-08-20T06:47:42;98073.16;;;43.27;11.04
42727;BME280;28372;56.832;60.658;2023-08-20T06:50:10;98067.38;;;43.35;10.47
42727;BME280;28372;56.832;60.658;2023-08-20T06:52:37;98070.22;;;43.35;10.67
42727;BME280;28372;56.832;60.658;2023-08-20T06:55:05;98075.03;;;43.42;10.73
42727;BME280;28372;56.832;60.658;2023-08-20T06:57:33;98060.25;;;43.54;10.40
42727;BME280;28372;56.832;60.658;2023-08-20T07:00:01;98061.00;;;43.64;10.37
42727;BME280;28372;56.832;60.658;2023-08-20T07:02:32;98056.97;;;43.57;10.12
42727;BME280;28372;56.832;60.658;2023-08-20T07:04:59;98059.72;;;43.38;10.11
42727;BME280;28372;56.832;60.658;2023-08-20T07:07:30;98050.19;;;43.53;10.53
42727;BME280;28372;56.832;60.658;2023-08-20T07:09:57;98048.72;;;43.52;10.57
42727;BME280;28372;56.832;60.658;2023-08-20T07:12:25;98041.66;;;43.53;10.20
42727;BME280;28372;56.832;60.658;2023-08-20T07:14:53;98040.94;;;43.72;10.74
42727;BME280;28372;56.832;60.658;2023-08-20T07:17:20;98041.56;;;43.80;10.19
42727;BME280;28372;56.832;60.658;2023-08-20T07:19:48;98035.03;;;43.50;10.68
42727;BME280;28372;56.832;60.658;2023-08-20T07:22:16;98019.81;;;42.91;11.20
42727;BME280;28372;56.832;60.658;2023-08-20T07:24:43;98031.00;;;42.79;11.30
42727;BME280;28372;56.832;60.658;2023-08-20T07:27:11;98022.59;;;42.54;10.49
42727;BME280;28372;56.832;60.658;2023-08-20T07:29:41;98012.03;;;42.02;10.80
42727;BME280;28372;56.832;60.658;2023-08-20T07:32:11;98029.22;;;41.18;11.15
42727;BME280;28372;56.832;60.658;2023-08-20T07:34:39;98024.84;;;40.59;11.70
42727;BME280;28372;56.832;60.658;2023-08-20T07:37:06;98038.47;;;39.58;11.85
42727;BME280;28372;56.832;60.658;2023-08-20T07:39:34;98014.97;;;38.28;12.33
42727;BME280;28372;56.832;60.658;2023-08-20T07:42:02;98035.50;;;37.92;12.93
42727;BME280;28372;56.832;60.658;2023-08-20T07:44:30;98024.88;;;37.35;13.34
42727;BME280;28372;56.832;60.658;2023-08-20T07:46:58;98027.69;;;36.31;13.57
42727;BME280;28372;56.832;60.658;2023-08-20T07:49:25;98024.41;;;36.27;13.66
42727;BME280;28372;56.832;60.658;2023-08-20T07:51:53;98019.47;;;36.07;13.96
42727;BME280;28372;56.832;60.658;2023-08-20T07:54:28;98017.09;;;35.84;14.05
42727;BME280;28372;56.832;60.658;2023-08-20T07:56:56;98012.19;;;35.71;13.06
42727;BME280;28372;56.832;60.658;2023-08-20T07:59:24;98009.88;;;35.43;13.33
42727;BME280;28372;56.832;60.658;2023-08-20T08:01:52;98021.22;;;34.86;14.46
42727;BME280;28372;56.832;60.658;2023-08-20T08:04:19;98027.91;;;34.20;15.01
42727;BME280;28372;56.832;60.658;2023-08-20T08:06:47;98027.06;;;34.06;15.11
42727;BME280;28372;56.832;60.658;2023-08-20T08:09:26;98027.66;;;34.42;14.73
42727;BME280;28372;56.832;60.658;2023-08-20T08:11:55;98026.66;;;33.41;15.01
42727;BME280;28372;56.832;60.658;2023-08-20T08:14:23;98014.03;;;33.28;14.86
42727;BME280;28372;56.832;60.658;2023-08-20T08:16:51;98018.41;;;32.82;15.01
42727;BME280;28372;56.832;60.658;2023-08-20T08:19:19;98007.59;;;32.56;15.05
42727;BME280;28372;56.832;60.658;2023-08-20T08:21:50;97989.00;;;33.00;14.59
42727;BME280;28372;56.832;60.658;2023-08-20T08:24:18;97989.00;;;33.00;14.93
42727;BME280;28372;56.832;60.658;2023-08-20T08:26:46;97993.91;;;32.94;15.57
42727;BME280;28372;56.832;60.658;2023-08-20T08:29:13;98004.59;;;32.42;15.60
42727;BME280;28372;56.832;60.658;2023-08-20T08:31:41;98003.53;;;31.75;16.36
42727;BME280;28372;56.832;60.658;2023-08-20T08:34:08;97997.72;;;31.34;16.58
42727;BME280;28372;56.832;60.658;2023-08-20T08:36:36;97994.44;;;31.35;16.47
42727;BME280;28372;56.832;60.658;2023-08-20T08:39:04;97999.53;;;31.20;16.29
42727;BME280;28372;56.832;60.658;2023-08-20T08:41:35;97998.75;;;31.36;16.80
42727;BME280;28372;56.832;60.658;2023-08-20T08:44:08;97999.75;;;31.44;17.50
42727;BME280;28372;56.832;60.658;2023-08-20T08:46:39;97988.06;;;31.29;17.15
42727;BME280;28372;56.832;60.658;2023-08-20T08:49:08;97995.91;;;30.97;17.17
42727;BME280;28372;56.832;60.658;2023-08-20T08:51:36;97988.66;;;30.33;17.11
42727;BME280;28372;56.832;60.658;2023-08-20T08:54:05;97983.25;;;30.18;17.02
42727;BME280;28372;56.832;60.658;2023-08-20T08:56:32;97979.50;;;29.72;17.46
42727;BME280;28372;56.832;60.658;2023-08-20T08:59:00;97978.06;;;29.51;17.80
42727;BME280;28372;56.832;60.658;2023-08-20T09:01:28;97990.16;;;29.10;18.39
42727;BME280;28372;56.832;60.658;2023-08-20T09:04:00;97976.34;;;28.95;18.90
42727;BME280;28372;56.832;60.658;2023-08-20T09:06:51;97977.97;;;29.34;18.89
42727;BME280;28372;56.832;60.658;2023-08-20T09:09:20;97979.94;;;29.28;19.00
42727;BME280;28372;56.832;60.658;2023-08-20T09:11:48;97964.91;;;29.19;18.54
42727;BME280;28372;56.832;60.658;2023-08-20T09:14:29;97978.19;;;29.68;18.22
42727;BME280;28372;56.832;60.658;2023-08-20T09:17:01;97987.16;;;28.87;18.89
42727;BME280;28372;56.832;60.658;2023-08-20T09:19:30;97968.03;;;28.28;18.18
42727;BME280;28372;56.832;60.658;2023-08-20T09:22:02;97972.91;;;28.12;18.89
42727;BME280;28372;56.832;60.658;2023-08-20T09:24:51;97972.91;;;28.33;19.00
42727;BME280;28372;56.832;60.658;2023-08-20T09:27:21;97970.44;;;27.79;18.74
42727;BME280;28372;56.832;60.658;2023-08-20T09:29:51;97975.28;;;27.63;19.05
42727;BME280;28372;56.832;60.658;2023-08-20T09:32:24;97973.03;;;27.32;20.40
42727;BME280;28372;56.832;60.658;2023-08-20T09:34:54;97963.03;;;26.90;21.38
42727;BME280;28372;56.832;60.658;2023-08-20T09:37:24;97972.38;;;26.77;21.87
42727;BME280;28372;56.832;60.658;2023-08-20T09:39:52;97959.00;;;26.91;21.55
42727;BME280;28372;56.832;60.658;2023-08-20T09:42:19;97954.41;;;26.88;21.89
42727;BME280;28372;56.832;60.658;2023-08-20T09:44:47;97955.34;;;26.84;22.48
42727;BME280;28372;56.832;60.658;2023-08-20T09:47:18;97952.97;;;26.92;22.13
42727;BME280;28372;56.832;60.658;2023-08-20T09:49:48;97960.13;;;26.69;22.37
42727;BME280;28372;56.832;60.658;2023-08-20T09:52:33;97956.94;;;26.46;22.62
42727;BME280;28372;56.832;60.658;2023-08-20T09:55:12;97954.00;;;26.26;23.09
42727;BME280;28372;56.832;60.658;2023-08-20T09:57:41;97958.72;;;26.35;23.13
42727;BME280;28372;56.832;60.658;2023-08-20T10:00:13;97955.91;;;26.59;23.50
42727;BME280;28372;56.832;60.658;2023-08-20T10:02:43;97949.69;;;26.64;23.60
42727;BME280;28372;56.832;60.658;2023-08-20T10:05:12;97954.88;;;26.71;23.22
42727;BME280;28372;56.832;60.658;2023-08-20T10:07:57;97945.59;;;26.74;23.25
42727;BME280;28372;56.832;60.658;2023-08-20T10:10:26;97954.34;;;26.43;23.10
42727;BME280;28372;56.832;60.658;2023-08-20T10:12:54;97948.19;;;26.24;23.59
42727;BME280;28372;56.832;60.658;2023-08-20T10:15:23;97945.63;;;26.35;23.44
42727;BME280;28372;56.832;60.658;2023-08-20T10:17:56;97945.34;;;26.33;23.88
42727;BME280;28372;56.832;60.658;2023-08-20T10:20:29;97942.69;;;26.54;23.44
42727;BME280;28372;56.832;60.658;2023-08-20T10:23:02;97948.44;;;26.65;23.20
42727;BME280;28372;56.832;60.658;2023-08-20T10:25:31;97936.84;;;26.52;23.08
42727;BME280;28372;56.832;60.658;2023-08-20T10:28:25;97921.31;;;26.84;23.21
42727;BME280;28372;56.832;60.658;2023-08-20T10:31:11;97928.66;;;26.72;23.34
42727;BME280;28372;56.832;60.658;2023-08-20T10:33:56;97921.13;;;26.73;23.35
42727;BME280;28372;56.832;60.658;2023-08-20T10:36:26;97929.41;;;26.43;23.39
42727;BME280;28372;56.832;60.658;2023-08-20T10:38:56;97920.59;;;26.44;23.93
42727;BME280;28372;56.832;60.658;2023-08-20T10:41:28;97917.44;;;26.52;23.69
42727;BME280;28372;56.832;60.658;2023-08-20T10:44:00;97920.78;;;26.56;23.85
42727;BME280;28372;56.832;60.658;2023-08-20T10:46:28;97910.16;;;26.39;23.36
42727;BME280;28372;56.832;60.658;2023-08-20T10:49:01;97908.09;;;26.64;23.60
42727;BME280;28372;56.832;60.658;2023-08-20T10:51:36;97904.94;;;26.71;23.75
42727;BME280;28372;56.832;60.658;2023-08-20T10:54:07;97898.31;;;26.54;23.75
42727;BME280;28372;56.832;60.658;2023-08-20T10:59:26;97892.94;;;26.65;23.75
42727;BME280;28372;56.832;60.658;2023-08-20T11:01:56;97893.69;;;26.21;23.75
42727;BME280;28372;56.832;60.658;2023-08-20T11:04:28;97898.94;;;25.94;24.13
42727;BME280;28372;56.832;60.658;2023-08-20T11:06:57;97893.88;;;25.93;24.13
42727;BME280;28372;56.832;60.658;2023-08-20T11:09:26;97886.53;;;25.65;24.15
42727;BME280;28372;56.832;60.658;2023-08-20T11:11:55;97884.66;;;25.47;24.39
42727;BME280;28372;56.832;60.658;2023-08-20T11:14:23;97881.94;;;25.38;24.35
42727;BME280;28372;56.832;60.658;2023-08-20T11:16:51;97883.19;;;25.28;24.73
42727;BME280;28372;56.832;60.658;2023-08-20T11:19:21;97878.88;;;25.27;24.99
42727;BME280;28372;56.832;60.658;2023-08-20T11:21:50;97882.47;;;25.18;24.92
42727;BME280;28372;56.832;60.658;2023-08-20T11:24:18;97876.56;;;25.01;24.97
42727;BME280;28372;56.832;60.658;2023-08-20T11:26:48;97878.75;;;24.88;25.24
42727;BME280;28372;56.832;60.658;2023-08-20T11:29:16;97878.91;;;24.84;25.43
42727;BME280;28372;56.832;60.658;2023-08-20T11:31:49;97876.19;;;24.75;25.09
42727;BME280;28372;56.832;60.658;2023-08-20T11:34:20;97886.66;;;24.61;25.57
42727;BME280;28372;56.832;60.658;2023-08-20T11:36:49;97876.84;;;24.23;26.19
42727;BME280;28372;56.832;60.658;2023-08-20T11:39:17;97856.59;;;24.17;26.09
42727;BME280;28372;56.832;60.658;2023-08-20T11:41:48;97853.06;;;24.17;26.22
42727;BME280;28372;56.832;60.658;2023-08-20T11:44:20;97861.34;;;24.35;26.11
42727;BME280;28372;56.832;60.658;2023-08-20T11:46:49;97851.06;;;24.36;26.36
42727;BME280;28372;56.832;60.658;2023-08-20T11:49:16;97848.16;;;24.30;25.89
42727;BME280;28372;56.832;60.658;2023-08-20T11:51:47;97850.91;;;24.30;26.78
42727;BME280;28372;56.832;60.658;2023-08-20T11:54:17;97842.50;;;23.97;27.35
42727;BME280;28372;56.832;60.658;2023-08-20T11:56:47;97848.16;;;23.84;26.94
42727;BME280;28372;56.832;60.658;2023-08-20T11:59:18;97847.19;;;23.50;27.64
42727;BME280;28372;56.832;60.658;2023-08-20T12:01:51;97843.50;;;23.03;28.56
42727;BME280;28372;56.832;60.658;2023-08-20T12:04:23;97828.00;;;22.87;28.29
42727;BME280;28372;56.832;60.658;2023-08-20T12:07:08;97839.84;;;23.06;28.56
42727;BME280;28372;56.832;60.658;2023-08-20T12:09:36;97826.50;;;23.04;28.32
42727;BME280;28372;56.832;60.658;2023-08-20T12:12:06;97825.88;;;22.91;28.95
42727;BME280;28372;56.832;60.658;2023-08-20T12:14:35;97820.31;;;22.82;29.14
42727;BME280;28372;56.832;60.658;2023-08-20T12:17:02;97818.34;;;22.91;29.04
42727;BME280;28372;56.832;60.658;2023-08-20T12:19:33;97813.13;;;22.84;29.12
42727;BME280;28372;56.832;60.658;2023-08-20T12:22:01;97801.34;;;22.84;29.01
42727;BME280;28372;56.832;60.658;2023-08-20T12:24:28;97810.06;;;22.91;29.36
42727;BME280;28372;56.832;60.658;2023-08-20T12:26:56;97809.16;;;22.54;30.09
42727;BME280;28372;56.832;60.658;2023-08-20T12:29:24;97803.78;;;22.50;30.16
42727;BME280;28372;56.832;60.658;2023-08-20T12:31:51;97796.09;;;22.45;30.41
42727;BME280;28372;56.832;60.658;2023-08-20T12:34:19;97794.72;;;22.40;30.29
42727;BME280;28372;56.832;60.658;2023-08-20T12:36:50;97807.66;;;22.62;30.35
42727;BME280;28372;56.832;60.658;2023-08-20T12:39:19;97803.97;;;22.56;30.63
42727;BME280;28372;56.832;60.658;2023-08-20T12:41:46;97787.84;;;22.45;30.83
42727;BME280;28372;56.832;60.658;2023-08-20T12:44:14;97791.94;;;22.18;31.10
42727;BME280;28372;56.832;60.658;2023-08-20T12:46:42;97789.72;;;22.04;31.36
42727;BME280;28372;56.832;60.658;2023-08-20T12:49:09;97780.44;;;21.88;31.79
42727;BME280;28372;56.832;60.658;2023-08-20T12:51:37;97784.13;;;21.95;31.84
42727;BME280;28372;56.832;60.658;2023-08-20T12:54:06;97786.06;;;22.07;31.67
42727;BME280;28372;56.832;60.658;2023-08-20T12:56:37;97779.66;;;22.10;31.59
42727;BME280;28372;56.832;60.658;2023-08-20T12:59:05;97783.16;;;22.11;32.02
42727;BME280;28372;56.832;60.658;2023-08-20T13:01:33;97771.13;;;21.95;31.50
42727;BME280;28372;56.832;60.658;2023-08-20T13:04:01;97777.66;;;21.66;32.43
42727;BME280;28372;56.832;60.658;2023-08-20T13:06:30;97769.91;;;21.52;32.54
42727;BME280;28372;56.832;60.658;2023-08-20T13:08:58;97762.63;;;21.58;32.76
42727;BME280;28372;56.832;60.658;2023-08-20T13:11:27;97767.31;;;21.70;32.37
42727;BME280;28372;56.832;60.658;2023-08-20T13:13:55;97757.88;;;21.59;32.55
42727;BME280;28372;56.832;60.658;2023-08-20T13:16:23;97758.31;;;21.57;32.77